Time;durP1;ratioP1;P1;durP2;ratioP2;P2;SDS_P1;SDS_P2;PMS_P1;PMS_P2;Temp;Humidity;BMP_temperature;BMP_pressure;BME280_temperature;BME280_humidity;BME280_pressure;Samples;Min_cycle;Max_cycle;Signal;HPM_P1;HPM_P2
2021/01/13 00:00:33;;;;;;;13.72;7.35;;;;;;;1.61;83.94;96963.66;1694063;83;21555;-67
2021/01/13 00:03:03;;;;;;;16.97;8.45;;;;;;;1.59;83.85;96962.97;1693673;83;21170;-67
2021/01/13 00:05:31;;;;;;;14.28;6.80;;;;;;;1.57;83.93;96964.34;1696756;83;21630;-67
2021/01/13 00:07:59;;;;;;;9.13;6.80;;;;;;;1.58;83.82;96963.89;1695706;84;21250;-67
2021/01/13 00:10:28;;;;;;;16.23;6.70;;;;;;;1.58;83.75;96967.27;1695288;84;21183;-67
2021/01/13 00:12:56;;;;;;;13.28;8.00;;;;;;;1.58;83.69;96970.28;1694152;84;21170;-67
2021/01/13 00:15:24;;;;;;;15.60;9.38;;;;;;;1.52;84.10;96970.25;1693485;83;21143;-67
2021/01/13 00:17:52;;;;;;;13.53;8.55;;;;;;;1.48;84.09;96962.45;1696178;83;21629;-67
2021/01/13 00:20:20;;;;;;;18.73;8.85;;;;;;;1.45;84.41;96957.56;1692106;84;21139;-67
2021/01/13 00:22:49;;;;;;;13.05;8.80;;;;;;;1.41;84.56;96959.98;1693836;84;21214;-67
2021/01/13 00:25:19;;;;;;;16.42;9.03;;;;;;;1.39;84.60;96963.12;1695561;84;21207;-67
2021/01/13 00:27:50;;;;;;;13.78;7.90;;;;;;;1.39;84.79;96960.11;1695872;83;21171;-67
2021/01/13 00:30:21;;;;;;;15.35;7.45;;;;;;;1.44;84.54;96966.16;1694769;83;21202;-67
2021/01/13 00:32:49;;;;;;;13.50;8.23;;;;;;;1.46;84.39;96966.05;1694166;83;21187;-67
2021/01/13 00:35:18;;;;;;;14.45;6.72;;;;;;;1.46;84.42;96966.05;1666472;84;21150;-67
2021/01/13 00:37:47;;;;;;;9.75;6.83;;;;;;;1.43;84.47;96969.20;1695520;83;21307;-67
2021/01/13 00:40:15;;;;;;;14.20;7.70;;;;;;;1.44;84.51;96972.55;1695200;84;21193;-67
2021/01/13 00:42:47;;;;;;;9.43;6.58;;;;;;;1.47;84.38;96974.09;1695475;83;21173;-67
2021/01/13 00:45:18;;;;;;;12.40;6.53;;;;;;;1.50;84.34;96975.14;1693067;83;21631;-67
2021/01/13 00:47:52;;;;;;;10.63;6.53;;;;;;;1.48;84.19;96971.40;1693391;83;21139;-67
2021/01/13 00:50:22;;;;;;;11.00;6.90;;;;;;;1.47;84.37;96976.19;1696207;84;21635;-67
2021/01/13 00:52:51;;;;;;;11.63;5.75;;;;;;;1.43;84.37;96969.20;1692717;83;21178;-65
2021/01/13 00:55:21;;;;;;;12.98;6.28;;;;;;;1.44;84.09;96968.25;1694799;83;21183;-65
2021/01/13 00:57:50;;;;;;;6.62;3.42;;;;;;;1.43;83.49;96968.37;1693403;84;21230;-65
2021/01/13 01:00:20;;;;;;;6.53;4.03;;;;;;;1.42;83.30;96970.12;1696766;84;21182;-65
2021/01/13 01:02:51;;;;;;;5.17;4.28;;;;;;;1.51;83.60;96965.27;1695799;83;21154;-66
2021/01/13 01:05:21;;;;;;;8.03;6.25;;;;;;;1.57;83.49;96964.81;1695785;84;21234;-65
2021/01/13 01:07:49;;;;;;;7.35;4.37;;;;;;;1.65;83.15;96965.07;1692103;83;21638;-65
2021/01/13 01:10:28;;;;;;;7.10;3.75;;;;;;;1.70;82.64;96957.88;1693841;83;21162;-64
2021/01/13 01:12:58;;;;;;;12.35;5.92;;;;;;;1.71;81.65;96962.08;1691854;84;21135;-65
2021/01/13 01:15:27;;;;;;;4.83;3.22;;;;;;;1.70;81.58;96957.88;1693855;84;21537;-65
2021/01/13 01:17:55;;;;;;;6.62;3.60;;;;;;;1.64;81.08;96961.69;1694231;83;21630;-65
2021/01/13 01:20:24;;;;;;;10.03;5.47;;;;;;;1.59;80.84;96958.67;1692692;83;21170;-64
2021/01/13 01:22:59;;;;;;;7.10;4.62;;;;;;;1.52;81.28;96963.07;1692433;83;21300;-64
2021/01/13 01:25:30;;;;;;;10.93;4.70;;;;;;;1.50;81.35;96959.33;1694429;83;21139;-64
2021/01/13 01:28:00;;;;;;;8.30;5.22;;;;;;;1.46;81.45;96960.48;1694747;83;21218;-65
2021/01/13 01:30:30;;;;;;;7.62;4.47;;;;;;;1.39;81.53;96959.30;1697226;83;21599;-65
2021/01/13 01:33:00;;;;;;;6.33;3.27;;;;;;;1.28;81.67;96956.70;1694381;84;21694;-66
2021/01/13 01:35:29;;;;;;;11.28;4.40;;;;;;;1.20;82.24;96957.70;1693438;83;21206;-66
2021/01/13 01:37:57;;;;;;;9.60;4.87;;;;;;;1.18;82.26;96958.27;1692904;83;21194;-66
2021/01/13 01:40:26;;;;;;;10.72;5.83;;;;;;;1.16;82.12;96954.55;1694080;84;21143;-66
2021/01/13 01:42:55;;;;;;;8.45;4.87;;;;;;;1.09;82.01;96957.17;1691469;83;21170;-65
2021/01/13 01:45:28;;;;;;;6.22;3.67;;;;;;;1.11;82.06;96954.52;1693156;83;21324;-66
2021/01/13 01:48:06;;;;;;;7.78;4.33;;;;;;;1.11;82.23;96948.95;1697186;84;21198;-65
2021/01/13 01:50:36;;;;;;;6.42;5.35;;;;;;;1.07;82.19;96947.98;1692823;84;21173;-65
2021/01/13 01:53:28;;;;;;;10.32;4.35;;;;;;;1.04;82.28;96952.87;1695850;83;21707;-66
2021/01/13 01:56:14;;;;;;;8.45;4.95;;;;;;;1.00;82.30;96954.00;1696070;83;21135;-66
2021/01/13 01:58:46;;;;;;;5.42;3.08;;;;;;;1.03;82.27;96950.41;1686676;84;21143;-65
2021/01/13 02:01:19;;;;;;;7.97;3.87;;;;;;;1.00;82.31;96948.89;1695725;83;21233;-65
2021/01/13 02:03:59;;;;;;;8.13;3.65;;;;;;;1.01;82.24;96947.98;1692779;84;21602;-66
2021/01/13 02:06:31;;;;;;;7.72;5.85;;;;;;;1.05;82.26;96945.52;1690918;84;21261;-66
2021/01/13 02:09:00;;;;;;;11.10;4.25;;;;;;;1.09;82.06;96945.66;1696495;84;21613;-66
2021/01/13 02:11:30;;;;;;;11.12;4.87;;;;;;;0.89;81.77;96910.05;1693753;83;21178;-66
2021/01/13 02:13:58;;;;;;;5.95;3.72;;;;;;;1.14;81.85;96942.78;1690189;83;21698;-67
2021/01/13 02:16:26;;;;;;;6.58;3.95;;;;;;;1.16;81.74;96939.21;1694614;83;21217;-65
2021/01/13 02:18:59;;;;;;;10.60;4.60;;;;;;;1.17;81.57;96935.70;1695293;83;21142;-64
2021/01/13 02:21:31;;;;;;;10.08;4.05;;;;;;;1.15;81.45;96931.64;1692331;84;21589;-64
2021/01/13 02:24:13;;;;;;;8.13;4.95;;;;;;;1.13;81.62;96934.78;1697432;83;21174;-64
2021/01/13 02:27:32;;;;;;;6.97;5.12;;;;;;;1.07;81.82;96936.02;1693750;84;21205;-65
2021/01/13 02:30:05;;;;;;;6.72;4.45;;;;;;;1.09;82.03;96930.32;1694331;83;21795;-64
2021/01/13 02:32:47;;;;;;;5.90;3.83;;;;;;;1.09;81.92;96931.59;1693237;84;21178;-64
2021/01/13 02:35:27;;;;;;;12.98;5.53;;;;;;;1.12;82.01;96931.41;1695686;83;21210;-64
2021/01/13 02:38:12;;;;;;;4.22;2.60;;;;;;;1.16;81.88;96932.82;1693591;83;21166;-64
2021/01/13 02:40:47;;;;;;;7.90;4.05;;;;;;;1.17;81.21;96936.16;1695109;83;21183;-64
2021/01/13 02:43:20;;;;;;;10.20;4.28;;;;;;;1.19;81.49;96931.31;1693895;83;21238;-66
2021/01/13 02:45:49;;;;;;;6.17;3.40;;;;;;;1.18;81.04;96930.13;1690627;84;21187;-64
2021/01/13 02:48:22;;;;;;;8.58;2.85;;;;;;;1.15;81.07;96927.34;1694757;83;21198;-65
2021/01/13 02:51:00;;;;;;;6.05;3.55;;;;;;;1.13;81.27;96927.11;1692815;83;21147;-66
2021/01/13 02:53:46;;;;;;;6.87;4.25;;;;;;;1.15;81.31;96924.78;1690667;84;21178;-64
2021/01/13 02:56:33;;;;;;;8.25;3.47;;;;;;;1.18;81.13;96925.02;1695402;83;21174;-64
2021/01/13 02:59:06;;;;;;;5.00;2.80;;;;;;;1.16;81.02;96921.31;1694322;83;21169;-66
2021/01/13 03:01:38;;;;;;;6.25;3.08;;;;;;;1.17;81.01;96916.53;1694264;84;21231;-64
2021/01/13 03:04:09;;;;;;;10.08;4.65;;;;;;;1.17;81.04;96911.41;1694359;83;21181;-65
2021/01/13 03:06:41;;;;;;;6.95;4.35;;;;;;;1.18;80.96;96909.22;1693832;83;21202;-67
2021/01/13 03:09:11;;;;;;;4.42;2.62;;;;;;;1.16;80.88;96908.53;1695515;83;21570;-67
2021/01/13 03:11:41;;;;;;;6.60;3.30;;;;;;;1.17;80.97;96914.43;1692601;83;21206;-67
2021/01/13 03:14:20;;;;;;;8.23;3.30;;;;;;;1.16;80.97;96911.09;1693192;83;21174;-66
2021/01/13 03:17:06;;;;;;;5.78;3.10;;;;;;;1.16;81.02;96909.80;1695794;84;21174;-67
2021/01/13 03:19:52;;;;;;;6.78;3.22;;;;;;;1.16;81.15;96907.25;1694316;84;21161;-64
2021/01/13 03:22:25;;;;;;;6.85;3.22;;;;;;;1.14;81.29;96906.98;1694208;83;21155;-64
2021/01/13 03:25:06;;;;;;;9.45;5.58;;;;;;;1.10;81.37;96909.41;1697054;83;21178;-66
2021/01/13 03:30:20;;;;;;;7.22;3.90;;;;;;;1.03;81.99;96905.67;1676552;84;21218;-68
2021/01/13 03:33:03;;;;;;;4.83;3.65;;;;;;;0.96;82.12;96900.19;1684909;84;21156;-67
2021/01/13 03:36:25;;;;;;;7.35;4.33;;;;;;;0.92;82.32;96897.03;1690951;84;21643;-67
2021/01/13 03:39:16;;;;;;;5.50;3.20;;;;;;;0.88;82.74;96895.62;1651100;84;21257;-66
2021/01/13 03:42:17;;;;;;;5.70;4.03;;;;;;;0.85;82.88;96885.63;1667904;85;21166;-67
2021/01/13 03:44:48;;;;;;;8.40;5.03;;;;;;;0.88;83.04;96893.52;1636654;85;21229;-67
2021/01/13 03:50:40;;;;;;;8.90;4.60;;;;;;;0.85;83.52;96884.34;1633191;85;21607;-67
2021/01/13 03:53:14;;;;;;;6.78;4.40;;;;;;;0.86;83.87;96887.23;1693700;83;21216;-66
2021/01/13 03:55:44;;;;;;;9.50;4.55;;;;;;;0.89;83.60;96885.76;1659723;84;21238;-67
2021/01/13 03:58:41;;;;;;;10.08;5.05;;;;;;;0.88;83.49;96883.30;1701123;82;21205;-67
2021/01/13 04:01:28;;;;;;;9.53;4.25;;;;;;;0.78;84.01;96876.73;1701574;83;21175;-66
2021/01/13 04:04:17;;;;;;;5.95;4.05;;;;;;;0.77;83.67;96871.75;1686252;83;21183;-64
2021/01/13 04:06:53;;;;;;;4.90;3.33;;;;;;;0.70;84.11;96874.39;1671670;83;21193;-65
2021/01/13 04:09:43;;;;;;;7.90;3.87;;;;;;;0.70;83.56;96876.95;1694857;83;21251;-64
2021/01/13 04:12:16;;;;;;;4.95;3.00;;;;;;;0.70;83.79;96873.91;1683324;84;21178;-65
2021/01/13 04:14:52;;;;;;;7.15;3.70;;;;;;;0.72;84.08;96877.19;1683027;85;21179;-65
2021/01/13 04:17:20;;;;;;;6.93;3.57;;;;;;;0.74;84.19;96879.16;1687869;83;21227;-70
2021/01/13 04:19:50;;;;;;;5.72;3.35;;;;;;;0.76;84.05;96879.88;1682560;84;21175;-67
2021/01/13 04:22:26;;;;;;;9.58;3.80;;;;;;;0.79;84.14;96880.11;1686875;84;21292;-67
2021/01/13 04:24:55;;;;;;;7.83;4.28;;;;;;;0.85;84.19;96879.69;1689162;84;21170;-66
2021/01/13 04:27:25;;;;;;;8.45;3.75;;;;;;;0.85;83.59;96875.86;1688099;84;21190;-67
2021/01/13 04:29:53;;;;;;;5.33;2.67;;;;;;;0.87;83.78;96872.72;1686208;84;21238;-64
2021/01/13 04:32:22;;;;;;;4.83;2.62;;;;;;;0.92;83.89;96874.03;1686125;84;21139;-63
2021/01/13 04:34:52;;;;;;;5.62;3.22;;;;;;;0.97;83.87;96872.89;1683502;84;21144;-66
2021/01/13 04:37:20;;;;;;;6.33;2.75;;;;;;;1.04;83.92;96879.19;1688083;85;21218;-65
2021/01/13 04:39:49;;;;;;;6.00;3.75;;;;;;;1.08;83.80;96876.77;1690751;85;21209;-65
2021/01/13 04:42:21;;;;;;;6.00;3.47;;;;;;;1.05;83.34;96875.22;1689645;85;21178;-65
2021/01/13 04:45:08;;;;;;;6.37;3.85;;;;;;;1.01;83.34;96872.56;1668193;85;21139;-66
2021/01/13 04:47:42;;;;;;;8.73;4.30;;;;;;;1.00;83.83;96872.20;1683162;84;21316;-66
2021/01/13 04:50:39;;;;;;;7.25;4.03;;;;;;;0.83;84.44;96852.95;1687601;84;21598;-67
2021/01/13 04:53:17;;;;;;;9.25;4.05;;;;;;;0.92;84.54;96865.09;1652895;84;21690;-67
2021/01/13 04:55:55;;;;;;;10.63;4.70;;;;;;;0.98;84.64;96864.27;1653078;85;21183;-66
2021/01/13 04:59:09;;;;;;;9.20;4.55;;;;;;;0.91;85.05;96862.63;1636750;85;21606;-65
2021/01/13 05:02:07;;;;;;;5.50;3.10;;;;;;;0.84;85.31;96860.98;1648821;85;21658;-66
2021/01/13 05:05:03;;;;;;;4.50;3.58;;;;;;;0.86;85.35;96858.30;1657983;84;21224;-66
2021/01/13 05:07:42;;;;;;;6.83;3.75;;;;;;;0.85;85.25;96854.14;1654613;85;21665;-66
2021/01/13 05:10:14;;;;;;;8.83;6.12;;;;;;;0.83;85.33;96850.40;1641683;85;21186;-66
2021/01/13 05:12:55;;;;;;;16.48;6.47;;;;;;;0.86;85.18;96851.91;1657186;85;21364;-66
2021/01/13 05:15:27;;;;;;;11.53;5.83;;;;;;;0.87;85.05;96854.83;1654290;85;21210;-69
2021/01/13 05:18:30;;;;;;;11.68;5.20;;;;;;;0.87;85.28;96854.37;1641759;86;21624;-67
2021/01/13 05:21:02;;;;;;;22.37;5.37;;;;;;;0.87;85.30;96851.81;1625822;87;21256;-67
2021/01/13 05:23:32;;;;;;;8.48;5.75;;;;;;;0.88;85.16;96852.63;1588493;89;22830;-66
2021/01/13 05:26:02;;;;;;;4.67;3.02;;;;;;;0.90;85.22;96845.66;1579146;89;21688;-66
2021/01/13 05:28:34;;;;;;;9.15;5.10;;;;;;;0.92;85.28;96850.20;1616872;87;21213;-66
2021/01/13 05:31:04;;;;;;;9.05;4.67;;;;;;;0.91;85.36;96848.57;1592610;89;21191;-68
2021/01/13 05:33:53;;;;;;;12.10;5.35;;;;;;;0.91;85.21;96841.72;1612159;89;21197;-67
2021/01/13 05:36:25;;;;;;;5.47;3.37;;;;;;;0.92;85.38;96839.52;1648850;86;21190;-67
2021/01/13 05:39:30;;;;;;;9.45;6.65;;;;;;;0.90;85.75;96840.54;1646062;85;21223;-66
2021/01/13 05:42:03;;;;;;;11.60;5.62;;;;;;;0.91;85.58;96842.18;1595830;88;21194;-65
2021/01/13 05:47:34;;;;;;;11.83;6.17;;;;;;;0.95;85.21;96842.31;1605447;87;21249;-66
2021/01/13 05:50:19;;;;;;;5.60;4.78;;;;;;;1.00;85.17;96849.20;1629488;87;21654;-66
2021/01/13 05:52:53;;;;;;;8.85;4.83;;;;;;;1.01;85.36;96852.11;1678756;83;21239;-72
2021/01/13 05:58:08;;;;;;;7.72;4.97;;;;;;;0.88;86.47;96852.63;1734247;80;21160;-70
2021/01/13 06:00:36;;;;;;;12.80;5.53;;;;;;;0.83;87.16;96852.95;1734422;80;21595;-70
2021/01/13 06:03:06;;;;;;;9.18;3.92;;;;;;;0.81;87.32;96853.55;1716340;81;21163;-65
2021/01/13 06:05:39;;;;;;;16.70;5.75;;;;;;;0.81;87.71;96854.82;1735249;80;21585;-72
2021/01/13 06:08:10;;;;;;;11.12;5.53;;;;;;;0.81;87.89;96859.94;1726848;80;21188;-66
2021/01/13 06:10:40;;;;;;;10.30;4.15;;;;;;;0.82;87.55;96852.59;1736715;80;21171;-69
2021/01/13 06:13:13;;;;;;;6.47;4.28;;;;;;;0.79;87.81;96853.28;1741393;80;21174;-67
2021/01/13 06:15:45;;;;;;;5.67;3.95;;;;;;;0.77;88.25;96849.58;1721877;81;21119;-64
2021/01/13 06:18:22;;;;;;;6.80;4.55;;;;;;;0.79;88.01;96854.55;1744274;80;21655;-66
2021/01/13 06:21:14;;;;;;;10.75;3.95;;;;;;;0.81;87.85;96854.82;1716219;82;21663;-66
2021/01/13 06:23:51;;;;;;;9.23;5.72;;;;;;;0.86;87.83;96857.02;1725093;82;21179;-66
2021/01/13 06:26:21;;;;;;;7.47;4.20;;;;;;;0.92;87.44;96867.64;1754298;80;21560;-66
2021/01/13 06:29:01;;;;;;;9.68;6.08;;;;;;;0.95;87.22;96864.04;1757331;80;21204;-66
2021/01/13 06:31:35;;;;;;;11.08;5.33;;;;;;;1.01;87.05;96867.45;1749950;80;22354;-65
2021/01/13 06:34:30;;;;;;;10.88;4.92;;;;;;;0.98;86.83;96858.70;1752353;80;21160;-66
2021/01/13 06:37:36;;;;;;;8.83;5.53;;;;;;;0.96;87.20;96861.84;1749461;81;21186;-66
2021/01/13 06:40:26;;;;;;;9.78;6.12;;;;;;;0.94;87.51;96856.02;1728542;81;21631;-66
2021/01/13 06:42:55;;;;;;;9.45;6.83;;;;;;;0.87;87.63;96860.75;1662303;85;21222;-67
2021/01/13 06:45:33;;;;;;;9.78;5.25;;;;;;;0.88;88.30;96859.02;1671613;83;21236;-66
2021/01/13 06:48:02;;;;;;;10.58;6.00;;;;;;;0.95;87.72;96862.77;1669616;84;21175;-66
2021/01/13 06:50:40;;;;;;;9.55;6.62;;;;;;;0.97;87.70;96859.64;1665415;83;21631;-64
2021/01/13 06:53:12;;;;;;;15.43;8.30;;;;;;;0.94;88.28;96857.29;1670573;82;21231;-67
2021/01/13 06:55:42;;;;;;;13.48;6.30;;;;;;;0.98;87.86;96861.72;1683326;82;21551;-67
2021/01/13 06:58:15;;;;;;;12.63;6.67;;;;;;;1.01;87.64;96862.34;1673199;84;21227;-67
2021/01/13 07:00:47;;;;;;;12.10;5.58;;;;;;;0.97;87.22;96863.94;1669933;85;21158;-67
2021/01/13 07:03:40;;;;;;;12.20;7.10;;;;;;;1.00;87.03;96858.60;1659346;85;21644;-67
2021/01/13 07:06:11;;;;;;;12.45;6.03;;;;;;;0.83;87.68;96851.67;1633205;85;21631;-66
2021/01/13 07:08:49;;;;;;;15.70;6.65;;;;;;;0.85;87.71;96852.40;1622599;85;21246;-66
2021/01/13 07:11:17;;;;;;;9.55;6.00;;;;;;;0.73;88.36;96853.73;1646001;85;21143;-68
2021/01/13 07:13:54;;;;;;;12.45;8.03;;;;;;;0.81;88.43;96851.45;1644750;85;21190;-67
2021/01/13 07:16:29;;;;;;;11.18;6.53;;;;;;;0.86;87.95;96849.36;1649540;85;21203;-66
2021/01/13 07:19:00;;;;;;;18.35;7.28;;;;;;;0.85;88.02;96846.02;1662948;84;21225;-68
2021/01/13 07:21:40;;;;;;;9.98;6.10;;;;;;;0.83;88.12;96840.64;1689278;83;21234;-67
2021/01/13 07:24:16;;;;;;;9.90;6.17;;;;;;;0.79;88.47;96840.50;1680456;84;21678;-67
2021/01/13 07:26:46;;;;;;;12.63;5.85;;;;;;;0.73;89.02;96835.84;1685752;84;21182;-67
2021/01/13 07:29:14;;;;;;;9.90;6.22;;;;;;;0.73;89.15;96824.34;1681357;83;21221;-67
2021/01/13 07:31:45;;;;;;;8.78;5.83;;;;;;;0.80;88.87;96833.20;1667466;84;21237;-67
2021/01/13 07:34:42;;;;;;;13.05;7.08;;;;;;;0.83;87.69;96836.34;1678474;84;21186;-67
2021/01/13 07:37:19;;;;;;;9.48;5.85;;;;;;;0.89;87.79;96838.94;1676526;84;21197;-68
2021/01/13 07:40:16;;;;;;;8.80;5.47;;;;;;;0.85;88.36;96842.17;1673112;84;21181;-67
2021/01/13 07:42:47;;;;;;;9.23;6.28;;;;;;;0.84;87.30;96837.98;1676824;84;21180;-67
2021/01/13 07:48:23;;;;;;;11.90;5.28;;;;;;;0.87;88.53;96846.70;1652542;85;21211;-68
2021/01/13 07:51:13;;;;;;;9.65;5.87;;;;;;;1.01;87.79;96842.34;1611357;85;21226;-68
2021/01/13 07:53:47;;;;;;;8.15;5.67;;;;;;;1.07;87.66;96843.16;1705519;83;21170;-68
2021/01/13 07:56:16;;;;;;;8.88;3.87;;;;;;;1.13;87.67;96842.25;1718370;82;21285;-67
2021/01/13 08:02:06;;;;;;;9.38;5.47;;;;;;;1.23;87.05;96838.56;1657354;84;21186;-68
2021/01/13 08:05:20;;;;;;;15.30;5.58;;;;;;;1.27;86.76;96842.07;1684622;84;21564;-70
2021/01/13 08:08:10;;;;;;;8.55;3.72;;;;;;;1.31;86.30;96844.75;1678995;83;21214;-69
2021/01/13 08:10:40;;;;;;;8.90;4.28;;;;;;;1.31;85.68;96842.20;1666652;83;21194;-67
2021/01/13 08:13:36;;;;;;;7.80;4.28;;;;;;;1.27;85.81;96843.34;1667988;83;21634;-67
2021/01/13 08:16:48;;;;;;;6.75;3.83;;;;;;;1.18;86.88;96846.56;1655412;85;21612;-67
2021/01/13 08:19:52;;;;;;;4.72;3.72;;;;;;;1.18;86.13;96848.30;1617121;86;21227;-67
2021/01/13 08:22:25;;;;;;;4.97;3.05;;;;;;;1.26;86.20;96848.11;1644785;85;21184;-67
2021/01/13 08:25:01;;;;;;;5.78;3.12;;;;;;;1.28;85.69;96850.09;1644016;85;21258;-68
2021/01/13 08:27:29;;;;;;;6.20;3.25;;;;;;;1.24;85.30;96852.53;1647867;84;21615;-69
2021/01/13 08:29:59;;;;;;;6.25;3.02;;;;;;;1.23;85.42;96852.17;1622952;86;21225;-68
2021/01/13 08:32:39;;;;;;;6.17;3.77;;;;;;;1.20;85.74;96853.68;1639964;85;21222;-69
2021/01/13 08:35:09;;;;;;;6.03;3.90;;;;;;;1.14;85.94;96859.22;1648979;86;21254;-69
2021/01/13 08:37:38;;;;;;;4.78;2.42;;;;;;;1.15;86.09;96850.64;1638613;85;21234;-69
2021/01/13 08:40:31;;;;;;;5.10;3.27;;;;;;;1.23;86.17;96859.02;1649018;85;22386;-69
2021/01/13 08:43:17;;;;;;;6.58;2.87;;;;;;;1.25;86.06;96851.58;1656921;86;21188;-69
2021/01/13 08:45:51;;;;;;;7.42;3.75;;;;;;;1.29;85.83;96854.72;1713357;82;21648;-69
2021/01/13 08:48:42;;;;;;;10.90;4.50;;;;;;;1.31;85.92;96855.45;1709545;81;21606;-68
2021/01/13 08:51:26;;;;;;;;;;;;;;;;;;;;;
2021/01/13 08:54:22;;;;;;;6.60;3.85;;;;;;;1.31;86.56;96857.55;1633433;85;21187;-68
2021/01/13 08:57:03;;;;;;;8.03;4.17;;;;;;;1.14;87.45;96860.50;1637164;86;21191;-67
2021/01/13 08:59:59;;;;;;;4.22;3.83;;;;;;;1.27;86.63;96863.81;1701816;83;21218;-68
2021/01/13 09:02:32;;;;;;;5.95;4.08;;;;;;;1.41;85.74;96863.59;1650796;85;21604;-71
2021/01/13 09:05:02;;;;;;;13.28;6.70;;;;;;;1.42;85.31;96860.13;1647783;85;21250;-69
2021/01/13 09:07:36;;;;;;;8.33;4.97;;;;;;;1.39;85.31;96863.38;1653387;84;21241;-69
2021/01/13 09:10:11;;;;;;;8.53;6.00;;;;;;;1.44;84.39;96865.92;1657708;84;21618;-68
2021/01/13 09:13:06;;;;;;;12.53;6.03;;;;;;;1.58;84.92;96871.31;1647792;84;21191;-68
2021/01/13 09:15:36;;;;;;;7.22;5.22;;;;;;;1.64;84.29;96866.19;1617424;87;21262;-69
2021/01/13 09:18:26;;;;;;;10.55;5.87;;;;;;;1.57;84.13;96870.95;1645440;86;21292;-67
2021/01/13 09:21:36;;;;;;;10.85;5.60;;;;;;;1.69;84.24;96869.23;1712324;81;21159;-68
2021/01/13 09:24:09;;;;;;;8.30;6.05;;;;;;;1.63;84.47;96866.67;1660727;83;21649;-68
2021/01/13 09:29:19;;;;;;;23.50;13.03;;;;;;;1.69;84.04;96864.93;1636688;85;22135;-69
2021/01/13 09:32:15;;;;;;;58.95;24.37;;;;;;;1.73;84.05;96869.34;1619416;87;21196;-69
2021/01/13 09:34:53;;;;;;;35.00;17.15;;;;;;;1.77;84.11;96870.29;1628121;86;21575;-67
2021/01/13 09:37:22;;;;;;;10.95;6.17;;;;;;;1.78;83.83;96871.92;1616654;86;21227;-68
2021/01/13 09:40:03;;;;;;;10.75;5.22;;;;;;;1.78;83.92;96869.83;1607158;86;21246;-66
2021/01/13 09:42:42;;;;;;;7.80;4.75;;;;;;;1.75;83.62;96870.06;1625139;86;21616;-68
2021/01/13 09:45:11;;;;;;;7.80;4.10;;;;;;;1.69;83.19;96885.41;1688467;83;21180;-67
2021/01/13 09:48:01;;;;;;;7.50;4.72;;;;;;;1.56;83.79;96875.71;1682098;83;21192;-68
2021/01/13 09:50:32;;;;;;;7.58;4.87;;;;;;;1.40;83.97;96877.31;1673347;84;21214;-67
2021/01/13 09:55:44;;;;;;;5.12;4.60;;;;;;;1.19;84.64;96868.66;1646204;85;21144;-69
2021/01/13 09:58:17;;;;;;;6.95;4.05;;;;;;;1.05;85.85;96866.77;1626860;86;21177;-68
2021/01/13 10:00:49;;;;;;;9.93;5.47;;;;;;;1.08;85.85;96872.92;1636599;85;21194;-69
2021/01/13 10:03:18;;;;;;;13.85;5.22;;;;;;;1.02;86.45;96867.78;1649048;84;21137;-70
2021/01/13 10:05:48;;;;;;;12.20;6.15;;;;;;;1.07;86.25;96863.16;1649832;85;21183;-68
2021/01/13 10:08:39;;;;;;;16.12;7.90;;;;;;;0.94;86.64;96861.94;1644281;85;21205;-67
2021/01/13 10:11:10;;;;;;;9.30;5.95;;;;;;;1.00;86.79;96867.09;1708729;82;21223;-68
2021/01/13 10:13:41;;;;;;;10.23;5.50;;;;;;;1.10;86.69;96854.44;1709050;81;21266;-70
2021/01/13 10:16:13;;;;;;;11.45;5.22;;;;;;;1.16;86.05;96857.39;1701185;81;21161;-67
2021/01/13 10:19:00;;;;;;;7.22;4.47;;;;;;;1.18;85.93;96852.96;1705134;82;21194;-66
2021/01/13 10:21:42;;;;;;;2.58;2.05;;;;;;;1.30;85.21;96860.20;1708486;82;21165;-66
2021/01/13 10:24:20;;;;;;;1.47;1.17;;;;;;;1.42;82.87;96858.84;1823385;77;23084;-66
2021/01/13 10:26:50;;;;;;;0.93;0.75;;;;;;;1.41;81.71;96862.78;1759958;81;21167;-67
2021/01/13 10:29:24;;;;;;;0.75;0.55;;;;;;;1.39;80.69;96862.91;1769967;81;21182;-68
2021/01/13 10:32:18;;;;;;;1.30;1.20;;;;;;;1.37;80.16;96854.98;1760043;81;21159;-67
2021/01/13 10:35:18;;;;;;;1.52;1.12;;;;;;;1.33;80.47;96858.23;1741546;82;21167;-68
2021/01/13 10:37:57;;;;;;;1.30;1.22;;;;;;;1.32;80.70;96863.48;1712924;83;21149;-67
2021/01/13 10:40:26;;;;;;;1.02;1.00;;;;;;;1.25;79.69;96857.97;1729280;83;21202;-66
2021/01/13 10:42:56;;;;;;;1.35;1.10;;;;;;;1.24;79.81;96860.20;1729570;82;21210;-68
2021/01/13 10:45:25;;;;;;;1.42;1.02;;;;;;;1.23;79.84;96856.00;1729670;83;21179;-67
2021/01/13 10:48:02;;;;;;;2.42;1.10;;;;;;;1.23;79.39;96861.58;1729502;82;21154;-67
2021/01/13 10:50:33;;;;;;;1.02;0.75;;;;;;;1.21;79.21;96859.13;1729558;83;21159;-67
2021/01/13 10:53:02;;;;;;;1.62;1.37;;;;;;;1.20;79.71;96857.98;1703278;83;21590;-66
2021/01/13 10:55:33;;;;;;;1.40;1.12;;;;;;;1.18;79.33;96848.30;1729565;83;21163;-67
2021/01/13 10:58:24;;;;;;;1.60;1.10;;;;;;;1.16;78.45;96848.44;1729799;83;21147;-68
2021/01/13 11:01:25;;;;;;;0.93;0.78;;;;;;;1.13;78.07;96846.08;1682089;85;21271;-68
2021/01/13 11:03:54;;;;;;;2.10;1.75;;;;;;;1.03;77.46;96843.03;1714635;83;21626;-68
2021/01/13 11:06:25;;;;;;;0.88;0.65;;;;;;;1.02;77.43;96836.28;1714507;83;21174;-67
2021/01/13 11:08:55;;;;;;;5.47;2.37;;;;;;;1.00;77.62;96835.13;1714497;83;21608;-68
2021/01/13 11:11:24;;;;;;;1.40;1.30;;;;;;;1.02;77.98;96836.28;1714553;83;21209;-68
2021/01/13 11:13:53;;;;;;;2.35;2.15;;;;;;;1.02;77.62;96828.16;1714604;83;21671;-68
2021/01/13 11:17:01;;;;;;;0.45;0.40;;;;;;;1.04;77.63;96826.78;1714970;82;21167;-68
2021/01/13 11:19:30;;;;;;;1.02;0.93;;;;;;;1.00;77.51;96816.42;1627768;87;21225;-71
2021/01/13 11:21:59;;;;;;;0.65;0.62;;;;;;;0.96;77.97;96817.11;1622484;88;21594;-70
2021/01/13 11:24:34;;;;;;;1.85;1.00;;;;;;;0.96;78.02;96809.44;1622474;88;21166;-67
2021/01/13 11:27:13;;;;;;;2.00;1.22;;;;;;;0.95;77.66;96812.45;1622750;88;21290;-68
2021/01/13 11:29:46;;;;;;;1.50;0.55;;;;;;;0.94;77.50;96808.27;1618438;88;21210;-67
2021/01/13 11:35:56;;;;;;;1.22;0.68;;;;;;;0.91;76.12;96820.45;1622900;88;21137;-70
2021/01/13 11:42:07;;;;;;;11.60;6.97;;;;;;;0.90;77.56;96815.80;1622959;88;21142;-68
2021/01/13 11:58:54;;;;;;;4.72;3.20;;;;;;;1.23;77.12;96838.56;1686917;84;21206;-67
2021/01/13 12:01:26;;;;;;;2.12;1.60;;;;;;;1.15;75.89;96848.08;1686869;85;21166;-67
2021/01/13 12:04:04;;;;;;;1.47;1.07;;;;;;;1.17;76.51;96859.45;1686951;85;21724;-66
2021/01/13 12:06:32;;;;;;;3.72;1.45;;;;;;;1.10;75.99;96846.77;1686817;84;21179;-67
2021/01/13 12:09:00;;;;;;;2.50;1.32;;;;;;;1.11;76.03;96862.47;1686804;85;21167;-66
2021/01/13 12:11:34;;;;;;;1.77;1.37;;;;;;;1.12;75.97;96851.33;1686908;85;21614;-68
2021/01/13 12:14:02;;;;;;;1.42;1.07;;;;;;;1.12;75.38;96861.55;1686363;85;21199;-68
2021/01/13 12:16:31;;;;;;;3.98;1.80;;;;;;;1.14;75.77;96859.69;1686861;85;21179;-67
2021/01/13 12:18:59;;;;;;;3.85;2.27;;;;;;;1.13;75.82;96860.63;1687031;85;21202;-68
2021/01/13 12:21:30;;;;;;;2.92;1.95;;;;;;;1.12;75.81;96862.38;1686886;84;21198;-72
2021/01/13 12:24:16;;;;;;;3.60;2.35;;;;;;;1.07;75.38;96864.89;1686792;85;21631;-67
2021/01/13 12:26:45;;;;;;;1.00;0.80;;;;;;;1.01;75.48;96874.30;1687097;85;21210;-67
2021/01/13 12:29:18;;;;;;;5.15;2.75;;;;;;;1.03;76.60;96873.25;1686811;84;21594;-68
2021/01/13 12:31:49;;;;;;;3.75;2.12;;;;;;;1.03;76.03;96874.98;1687084;85;21205;-68
2021/01/13 12:34:28;;;;;;;2.08;1.70;;;;;;;0.96;76.35;96859.29;1686820;85;21725;-68
2021/01/13 12:37:00;;;;;;;5.58;1.40;;;;;;;1.12;76.36;96888.40;1686136;84;21174;-69
2021/01/13 12:39:31;;;;;;;1.75;1.20;;;;;;;1.04;75.66;96896.63;1686676;85;21127;-69
2021/01/13 12:42:03;;;;;;;4.22;1.92;;;;;;;1.07;75.86;96886.63;1686816;85;21573;-69
2021/01/13 12:44:33;;;;;;;1.45;1.35;;;;;;;1.13;76.17;96896.43;1687164;84;21677;-68
2021/01/13 12:47:08;;;;;;;4.75;2.15;;;;;;;1.10;76.13;96888.95;1686980;85;21174;-66
2021/01/13 12:49:36;;;;;;;4.15;1.92;;;;;;;1.09;76.13;96890.70;1686883;85;21166;-66
2021/01/13 12:52:05;;;;;;;5.37;1.95;;;;;;;1.12;75.76;96901.19;1687103;84;21689;-66
2021/01/13 12:54:33;;;;;;;1.95;1.32;;;;;;;1.11;75.16;96893.97;1687057;85;21257;-68
2021/01/13 12:57:03;;;;;;;2.22;1.45;;;;;;;1.19;75.07;96897.25;1682503;85;21358;-66
2021/01/13 12:59:31;;;;;;;8.55;2.15;;;;;;;1.14;75.18;96926.98;1671827;85;21214;-66
2021/01/13 13:02:00;;;;;;;3.33;1.62;;;;;;;1.29;75.00;96895.19;1669677;85;21616;-66
2021/01/13 13:04:28;;;;;;;3.77;1.80;;;;;;;1.31;74.16;96919.38;1656728;86;21188;-65
2021/01/13 13:06:56;;;;;;;4.47;2.02;;;;;;;1.30;74.08;96910.89;1648738;85;21588;-66
2021/01/13 13:09:24;;;;;;;4.17;1.77;;;;;;;1.45;73.51;96906.39;1676723;85;21184;-66